createdAt,value
2023-09-17T00:01:11.530Z,7.82
2023-09-17T00:03:40.398Z,7.68
2023-09-17T00:06:11.009Z,7.32
2023-09-17T00:08:40.466Z,8.43
2023-09-17T00:11:09.720Z,10.05
2023-09-17T00:13:40.235Z,9.80
2023-09-17T00:16:08.965Z,10.80
2023-09-17T00:18:37.747Z,10.85
2023-09-17T00:21:07.470Z,9.27
2023-09-17T00:23:37.566Z,11.45
2023-09-17T00:26:06.190Z,10.60
2023-09-17T00:28:34.760Z,11.35
2023-09-17T00:31:03.504Z,12.85
2023-09-17T00:33:32.846Z,9.60
2023-09-17T00:36:01.428Z,10.35
2023-09-17T00:38:30.017Z,8.05
2023-09-17T00:41:01.739Z,9.13
2023-09-17T00:43:31.249Z,8.88
2023-09-17T00:46:00.188Z,13.65
2023-09-17T00:48:29.355Z,8.75
2023-09-17T00:50:58.156Z,10.82
2023-09-17T00:53:27.592Z,7.30
2023-09-17T00:55:56.796Z,8.55
2023-09-17T00:58:29.933Z,8.77
2023-09-17T01:01:00.239Z,9.30
2023-09-17T01:03:29.559Z,8.98
2023-09-17T01:06:00.096Z,7.53
2023-09-17T01:08:29.159Z,9.75
2023-09-17T01:10:58.023Z,11.40
2023-09-17T01:13:29.148Z,9.98
2023-09-17T01:16:00.341Z,14.32
2023-09-17T01:18:30.030Z,9.57
2023-09-17T01:21:04.084Z,11.40
2023-09-17T01:23:40.665Z,10.30
2023-09-17T01:26:14.890Z,8.98
2023-09-17T01:28:45.332Z,10.30
2023-09-17T01:31:17.096Z,10.23
2023-09-17T01:33:45.806Z,8.85
2023-09-17T01:36:20.686Z,8.23
2023-09-17T01:38:52.413Z,9.05
2023-09-17T01:41:21.934Z,9.98
2023-09-17T01:43:52.837Z,9.73
2023-09-17T01:46:23.920Z,9.88
2023-09-17T01:48:52.984Z,12.30
2023-09-17T01:51:22.270Z,13.15
2023-09-17T01:53:51.061Z,8.77
2023-09-17T01:56:19.941Z,9.38
2023-09-17T01:58:48.594Z,8.18
2023-09-17T02:01:19.151Z,10.70
2023-09-17T02:03:47.889Z,9.70
2023-09-17T02:06:16.786Z,9.55
2023-09-17T02:08:45.332Z,12.80
2023-09-17T02:11:14.921Z,10.45
2023-09-17T02:13:43.622Z,11.07
2023-09-17T02:16:12.304Z,11.98
2023-09-17T02:18:42.480Z,12.20
2023-09-17T02:21:11.163Z,11.73
2023-09-17T02:23:39.691Z,9.90
2023-09-17T02:26:08.820Z,9.93
2023-09-17T02:28:37.376Z,9.70
2023-09-17T02:31:07.558Z,11.20
2023-09-17T02:33:36.120Z,9.10
2023-09-17T02:36:07.179Z,8.43
2023-09-17T02:38:35.847Z,8.10
2023-09-17T02:41:05.100Z,10.45
2023-09-17T02:43:34.511Z,11.18
2023-09-17T02:46:04.841Z,14.85
2023-09-17T02:48:34.172Z,12.27
2023-09-17T02:51:03.999Z,10.05
2023-09-17T02:53:34.174Z,10.35
2023-09-17T02:56:03.086Z,7.90
2023-09-17T02:58:31.821Z,11.35
2023-09-17T03:01:00.543Z,16.27
2023-09-17T03:03:29.332Z,8.18
2023-09-17T03:06:00.399Z,8.65
2023-09-17T03:08:31.341Z,10.77
2023-09-17T03:11:02.141Z,8.43
2023-09-17T03:13:31.681Z,10.20
2023-09-17T03:16:00.533Z,8.98
2023-09-17T03:18:29.386Z,9.45
2023-09-17T03:20:58.706Z,10.15
2023-09-17T03:23:27.355Z,9.57
2023-09-17T03:25:56.179Z,11.57
2023-09-17T03:28:26.468Z,8.35
2023-09-17T03:30:56.958Z,10.07
2023-09-17T03:33:26.061Z,10.07
2023-09-17T03:35:54.791Z,10.07
2023-09-17T03:38:25.205Z,10.18
2023-09-17T03:40:55.661Z,9.90
2023-09-17T03:43:28.502Z,11.40
2023-09-17T03:46:00.267Z,9.38
2023-09-17T03:48:29.399Z,8.70
2023-09-17T03:50:59.612Z,8.95
2023-09-17T03:53:28.768Z,11.85
2023-09-17T03:55:57.565Z,11.80
2023-09-17T03:58:28.022Z,10.43
2023-09-17T04:00:56.847Z,10.38
2023-09-17T04:03:26.596Z,10.73
2023-09-17T04:05:55.890Z,13.07
2023-09-17T04:08:25.479Z,12.02
2023-09-17T04:10:56.110Z,12.45
2023-09-17T04:13:24.951Z,13.13
2023-09-17T04:15:55.270Z,7.13
2023-09-17T04:18:24.029Z,9.27
2023-09-17T04:20:53.448Z,9.25
2023-09-17T04:23:23.401Z,8.27
2023-09-17T04:25:52.098Z,9.93
2023-09-17T04:28:20.863Z,9.52
2023-09-17T04:30:49.825Z,9.77
2023-09-17T04:33:20.557Z,8.75
2023-09-17T04:35:49.363Z,10.98
2023-09-17T04:38:18.091Z,10.07
2023-09-17T04:40:47.237Z,8.65
2023-09-17T04:43:18.268Z,9.70
2023-09-17T04:45:47.955Z,9.23
2023-09-17T04:48:29.267Z,10.23
2023-09-17T04:50:57.901Z,8.15
2023-09-17T04:53:26.772Z,9.38
2023-09-17T04:55:56.460Z,10.55
2023-09-17T04:58:31.774Z,6.93
2023-09-17T05:01:03.414Z,8.55
2023-09-17T05:03:34.520Z,10.30
2023-09-17T05:06:06.114Z,8.50
2023-09-17T05:08:35.472Z,12.00
2023-09-17T05:11:06.347Z,8.60
2023-09-17T05:13:35.128Z,10.45
2023-09-17T05:16:04.320Z,9.73
2023-09-17T05:18:34.506Z,9.50
2023-09-17T05:21:03.241Z,10.30
2023-09-17T05:23:31.949Z,10.48
2023-09-17T05:26:03.780Z,7.07
2023-09-17T05:28:33.820Z,8.38
2023-09-17T05:31:04.831Z,9.05
2023-09-17T05:33:35.777Z,7.68
2023-09-17T05:36:06.308Z,8.10
2023-09-17T05:38:34.989Z,8.13
2023-09-17T05:41:04.652Z,9.35
2023-09-17T05:43:33.559Z,11.57
2023-09-17T05:46:02.989Z,9.90
2023-09-17T05:48:45.180Z,9.70
2023-09-17T05:51:14.175Z,8.73
2023-09-17T05:53:43.274Z,10.05
2023-09-17T05:56:12.372Z,11.07
2023-09-17T05:58:41.319Z,9.95
2023-09-17T06:01:11.030Z,7.63
2023-09-17T06:03:40.304Z,9.18
2023-09-17T06:06:10.373Z,8.35
2023-09-17T06:08:39.022Z,7.93
2023-09-17T06:11:07.928Z,7.57
2023-09-17T06:13:36.868Z,10.55
2023-09-17T06:16:06.199Z,10.95
2023-09-17T06:18:35.558Z,9.25
2023-09-17T06:21:05.273Z,10.27
2023-09-17T06:23:36.767Z,8.57
2023-09-17T06:26:10.061Z,9.32
2023-09-17T06:28:39.186Z,8.65
2023-09-17T06:31:09.188Z,9.85
2023-09-17T06:33:38.936Z,7.63
2023-09-17T06:36:08.218Z,9.30
2023-09-17T06:38:38.448Z,8.55
2023-09-17T06:41:07.141Z,7.85
2023-09-17T06:43:35.860Z,9.35
2023-09-17T06:46:05.028Z,8.38
2023-09-17T06:48:33.740Z,9.57
2023-09-17T06:51:02.823Z,9.60
2023-09-17T06:53:31.454Z,7.97
2023-09-17T06:56:01.998Z,7.70
2023-09-17T06:58:30.826Z,8.82
2023-09-17T07:00:59.521Z,9.43
2023-09-17T07:03:28.193Z,7.22
2023-09-17T07:05:56.899Z,9.90
2023-09-17T07:08:25.934Z,7.38
2023-09-17T07:10:54.605Z,7.47
2023-09-17T07:13:24.905Z,7.43
2023-09-17T07:15:53.604Z,9.13
2023-09-17T07:18:22.436Z,7.07
2023-09-17T07:20:51.807Z,7.70
2023-09-17T07:23:20.551Z,7.45
2023-09-17T07:25:49.282Z,5.55
2023-09-17T07:28:20.068Z,6.95
2023-09-17T07:30:55.418Z,5.43
2023-09-17T07:33:24.150Z,6.18
2023-09-17T07:35:53.755Z,5.82
2023-09-17T07:38:22.445Z,9.82
2023-09-17T07:40:52.177Z,4.72
2023-09-17T07:43:20.870Z,6.38
2023-09-17T07:45:51.344Z,5.72
2023-09-17T07:48:21.206Z,4.93
2023-09-17T07:50:57.362Z,6.18
2023-09-17T07:53:26.545Z,12.77
2023-09-17T07:55:57.136Z,5.93
2023-09-17T07:58:26.121Z,7.68
2023-09-17T08:00:58.956Z,5.40
2023-09-17T08:03:28.605Z,6.10
2023-09-17T08:05:58.267Z,7.72
2023-09-17T08:08:27.716Z,6.55
2023-09-17T08:10:57.246Z,5.00
2023-09-17T08:13:26.168Z,5.40
2023-09-17T08:15:55.112Z,5.68
2023-09-17T08:18:25.218Z,7.30
2023-09-17T08:20:53.800Z,5.38
2023-09-17T08:23:22.920Z,4.05
2023-09-17T08:26:11.924Z,6.90
2023-09-17T08:29:01.353Z,4.80
2023-09-17T08:31:50.065Z,6.40
2023-09-17T08:34:40.238Z,6.35
2023-09-17T08:37:09.395Z,5.72
2023-09-17T08:39:38.212Z,4.18
2023-09-17T08:42:07.809Z,7.00
2023-09-17T08:44:42.651Z,5.75
2023-09-17T08:47:17.517Z,6.43
2023-09-17T08:49:47.632Z,6.07
2023-09-17T08:52:19.508Z,6.63
2023-09-17T08:54:51.120Z,5.20
2023-09-17T08:57:27.779Z,5.78
2023-09-17T09:00:10.257Z,5.72
2023-09-17T09:02:53.438Z,4.32
2023-09-17T09:05:26.657Z,5.55
2023-09-17T09:07:59.347Z,3.92
2023-09-17T09:10:28.201Z,5.03
2023-09-17T09:12:57.858Z,4.15
2023-09-17T09:15:31.348Z,4.72
2023-09-17T09:18:00.081Z,5.55
2023-09-17T09:20:30.324Z,5.40
2023-09-17T09:23:02.209Z,6.78
2023-09-17T09:25:34.239Z,5.25
2023-09-17T09:28:09.134Z,4.25
2023-09-17T09:30:38.651Z,4.47
2023-09-17T09:33:07.694Z,8.45
2023-09-17T09:35:38.001Z,7.13
2023-09-17T09:38:06.942Z,6.22
2023-09-17T09:40:37.867Z,5.50
2023-09-17T09:43:06.700Z,9.27
2023-09-17T09:45:37.335Z,6.47
2023-09-17T09:48:15.296Z,5.05
2023-09-17T09:50:47.194Z,7.47
2023-09-17T09:53:16.338Z,4.63
2023-09-17T09:55:45.144Z,5.38
2023-09-17T09:58:14.450Z,4.55
2023-09-17T10:00:46.285Z,3.40
2023-09-17T10:03:15.623Z,5.50
2023-09-17T10:05:46.328Z,3.95
2023-09-17T10:08:19.845Z,4.22
2023-09-17T10:10:53.202Z,4.25
2023-09-17T10:13:22.332Z,3.92
2023-09-17T10:15:52.145Z,3.88
2023-09-17T10:18:21.758Z,5.65
2023-09-17T10:20:54.381Z,6.90
2023-09-17T10:23:25.182Z,6.07
2023-09-17T10:25:56.804Z,6.18
2023-09-17T10:28:40.748Z,3.97
2023-09-17T10:31:11.165Z,5.25
2023-09-17T10:33:45.167Z,4.68
2023-09-17T10:36:15.800Z,35.58
2023-09-17T10:38:48.631Z,3.97
2023-09-17T10:41:17.965Z,7.95
2023-09-17T10:43:48.868Z,4.82
2023-09-17T10:46:20.489Z,3.95
2023-09-17T10:48:51.451Z,4.30
2023-09-17T10:51:22.218Z,3.08
2023-09-17T10:53:51.193Z,8.25
2023-09-17T10:56:20.936Z,6.20
2023-09-17T10:58:52.661Z,5.15
2023-09-17T11:01:26.821Z,3.50
2023-09-17T11:04:01.325Z,4.93
2023-09-17T11:06:35.913Z,5.13
2023-09-17T11:09:06.153Z,4.00
2023-09-17T11:11:36.567Z,4.35
2023-09-17T11:14:06.514Z,4.10
2023-09-17T11:16:38.995Z,3.70
2023-09-17T11:19:10.682Z,4.60
2023-09-17T11:21:42.039Z,4.85
2023-09-17T11:24:13.524Z,5.00
2023-09-17T11:26:46.185Z,4.90
2023-09-17T11:29:15.876Z,4.25
2023-09-17T11:32:05.239Z,3.08
2023-09-17T11:34:36.264Z,4.13
2023-09-17T11:37:08.025Z,7.25
2023-09-17T11:39:37.983Z,5.03
2023-09-17T11:42:14.707Z,2.55
2023-09-17T11:44:46.322Z,3.35
2023-09-17T11:47:16.346Z,4.53
2023-09-17T11:49:45.170Z,2.63
2023-09-17T11:52:15.361Z,9.32
2023-09-17T11:54:49.671Z,3.20
2023-09-17T11:57:25.732Z,3.25
2023-09-17T11:59:55.424Z,3.65
2023-09-17T12:02:25.394Z,2.88
2023-09-17T12:04:54.899Z,2.75
2023-09-17T12:07:26.223Z,3.10
2023-09-17T12:10:03.081Z,5.28
2023-09-17T12:12:34.664Z,4.75
2023-09-17T12:15:03.944Z,3.42
2023-09-17T12:17:39.326Z,7.22
2023-09-17T12:21:00.144Z,5.68
2023-09-17T12:23:58.708Z,3.05
2023-09-17T12:27:11.058Z,4.72
2023-09-17T12:29:42.058Z,3.65
2023-09-17T12:32:12.733Z,5.03
2023-09-17T12:34:42.677Z,2.35
2023-09-17T12:37:12.463Z,2.78
2023-09-17T12:39:44.295Z,4.00
2023-09-17T12:42:13.061Z,2.30
2023-09-17T12:44:41.915Z,6.00
2023-09-17T12:47:10.915Z,5.32
2023-09-17T12:49:39.748Z,2.40
2023-09-17T12:52:08.567Z,3.10
2023-09-17T12:54:37.386Z,2.53
2023-09-17T12:57:08.449Z,4.55
2023-09-17T12:59:38.788Z,3.83
2023-09-17T13:02:08.813Z,3.55
2023-09-17T13:04:38.936Z,4.00
2023-09-17T13:07:18.484Z,2.67
2023-09-17T13:09:48.055Z,2.20
2023-09-17T13:12:20.010Z,2.58
2023-09-17T13:14:51.850Z,3.40
2023-09-17T13:17:21.556Z,3.35
2023-09-17T13:19:50.646Z,3.35
2023-09-17T13:22:20.521Z,2.00
2023-09-17T13:24:49.717Z,4.13
2023-09-17T13:27:21.442Z,2.55
2023-09-17T13:29:51.548Z,3.80
2023-09-17T13:32:21.333Z,4.65
2023-09-17T13:34:50.960Z,4.70
2023-09-17T13:37:20.319Z,2.47
2023-09-17T13:39:51.244Z,3.65
2023-09-17T13:42:22.127Z,4.65
2023-09-17T13:44:50.891Z,6.95
2023-09-17T13:47:19.565Z,2.53
2023-09-17T13:49:48.202Z,2.90
2023-09-17T13:52:17.499Z,1.73
2023-09-17T13:54:46.870Z,1.50
2023-09-17T13:57:16.827Z,3.70
2023-09-17T13:59:46.838Z,2.33
2023-09-17T14:02:17.480Z,3.55
2023-09-17T14:04:46.641Z,3.30
2023-09-17T14:07:15.651Z,1.33
2023-09-17T14:09:44.438Z,4.57
2023-09-17T14:12:13.066Z,4.80
2023-09-17T14:14:41.757Z,4.15
2023-09-17T14:17:13.916Z,5.85
2023-09-17T14:19:42.842Z,2.05
2023-09-17T14:22:11.646Z,2.85
2023-09-17T14:24:40.234Z,5.00
2023-09-17T14:27:08.845Z,1.60
2023-09-17T14:29:38.648Z,2.47
2023-09-17T14:32:08.566Z,2.30
2023-09-17T14:34:38.680Z,1.83
2023-09-17T14:37:08.064Z,2.97
2023-09-17T14:39:37.652Z,2.75
2023-09-17T14:42:06.676Z,1.58
2023-09-17T14:44:35.271Z,2.25
2023-09-17T14:47:04.909Z,2.50
2023-09-17T14:49:34.286Z,3.88
2023-09-17T14:52:05.078Z,1.50
2023-09-17T14:54:34.210Z,3.50
2023-09-17T14:57:02.930Z,2.17
2023-09-17T14:59:32.292Z,2.03
2023-09-17T15:02:01.740Z,2.20
2023-09-17T15:04:30.905Z,4.30
2023-09-17T15:06:59.874Z,5.15
2023-09-17T15:09:29.996Z,3.63
2023-09-17T15:11:58.749Z,3.03
2023-09-17T15:14:27.589Z,4.30
2023-09-17T15:16:56.555Z,4.05
2023-09-17T15:19:25.882Z,4.20
2023-09-17T15:21:54.627Z,5.22
2023-09-17T15:24:24.474Z,3.85
2023-09-17T15:26:54.453Z,2.78
2023-09-17T15:29:23.177Z,3.50
2023-09-17T15:31:51.851Z,3.58
2023-09-17T15:34:20.548Z,3.67
2023-09-17T15:36:49.742Z,1.88
2023-09-17T15:39:18.394Z,2.22
2023-09-17T15:41:47.077Z,3.55
2023-09-17T15:44:17.120Z,2.67
2023-09-17T15:46:46.808Z,3.50
2023-09-17T15:49:15.655Z,2.33
2023-09-17T15:51:44.285Z,4.88
2023-09-17T15:54:12.998Z,4.05
2023-09-17T15:56:42.468Z,5.57
2023-09-17T15:59:11.352Z,12.13
2023-09-17T16:01:42.577Z,5.50
2023-09-17T16:04:11.556Z,4.53
2023-09-17T16:06:40.566Z,3.35
2023-09-17T16:09:09.322Z,7.00
2023-09-17T16:11:38.170Z,6.15
2023-09-17T16:14:07.039Z,4.88
2023-09-17T16:16:35.893Z,6.82
2023-09-17T16:19:06.218Z,7.40
2023-09-17T16:21:34.899Z,1.90
2023-09-17T16:24:03.693Z,2.72
2023-09-17T16:26:35.573Z,3.35
2023-09-17T16:29:05.313Z,4.55
2023-09-17T16:31:33.865Z,2.53
2023-09-17T16:34:02.698Z,4.25
2023-09-17T16:36:32.801Z,4.28
2023-09-17T16:39:01.499Z,1.80
2023-09-17T16:41:31.152Z,6.43
2023-09-17T16:43:59.926Z,4.97
2023-09-17T16:46:28.743Z,4.13
2023-09-17T16:48:57.343Z,2.35
2023-09-17T16:51:26.027Z,4.22
2023-09-17T16:53:56.543Z,3.88
2023-09-17T16:56:25.233Z,3.38
2023-09-17T16:58:53.874Z,6.70
2023-09-17T17:01:22.654Z,3.35
2023-09-17T17:03:51.581Z,3.33
2023-09-17T17:06:20.433Z,4.22
2023-09-17T17:08:49.251Z,4.43
2023-09-17T17:11:19.541Z,4.20
2023-09-17T17:13:48.597Z,4.25
2023-09-17T17:16:17.227Z,5.65
2023-09-17T17:18:45.855Z,4.70
2023-09-17T17:21:14.643Z,3.40
2023-09-17T17:23:43.292Z,21.48
2023-09-17T17:26:11.944Z,25.95
2023-09-17T17:28:42.495Z,39.00
2023-09-17T17:31:11.125Z,27.77
2023-09-17T17:33:39.801Z,14.48
2023-09-17T17:36:09.171Z,12.68
2023-09-17T17:38:40.797Z,8.40
2023-09-17T17:41:09.851Z,6.80
2023-09-17T17:43:38.947Z,16.63
2023-09-17T17:46:09.417Z,19.92
2023-09-17T17:48:38.139Z,19.70
2023-09-17T17:51:07.892Z,19.88
2023-09-17T17:53:37.297Z,6.70
2023-09-17T17:56:07.444Z,10.20
2023-09-17T17:58:36.341Z,5.60
2023-09-17T18:01:05.603Z,10.40
2023-09-17T18:03:35.721Z,7.93
2023-09-17T18:06:04.531Z,5.38
2023-09-17T18:08:33.136Z,6.55
2023-09-17T18:11:01.898Z,6.78
2023-09-17T18:13:30.702Z,10.73
2023-09-17T18:16:00.365Z,5.90
2023-09-17T18:18:30.105Z,7.35
2023-09-17T18:21:00.119Z,6.55
2023-09-17T18:23:28.927Z,8.13
2023-09-17T18:25:57.628Z,5.65
2023-09-17T18:28:29.444Z,6.97
2023-09-17T18:30:59.770Z,7.85
2023-09-17T18:33:28.959Z,6.75
2023-09-17T18:36:00.213Z,7.10
2023-09-17T18:38:28.924Z,7.72
2023-09-17T18:40:57.563Z,9.05
2023-09-17T18:43:26.446Z,7.75
2023-09-17T18:45:55.093Z,9.02
2023-09-17T18:48:23.811Z,9.05
2023-09-17T18:50:52.625Z,6.88
2023-09-17T18:53:22.822Z,7.63
2023-09-17T18:55:51.578Z,6.43
2023-09-17T18:58:20.358Z,7.85
2023-09-17T19:00:49.188Z,5.32
2023-09-17T19:03:18.000Z,7.68
2023-09-17T19:05:46.925Z,8.02
2023-09-17T19:08:15.569Z,5.00
2023-09-17T19:10:45.615Z,9.73
2023-09-17T19:13:14.708Z,6.78
2023-09-17T19:15:45.918Z,6.57
2023-09-17T19:18:15.919Z,4.82
2023-09-17T19:20:45.277Z,7.00
2023-09-17T19:23:15.257Z,7.15
2023-09-17T19:25:45.748Z,5.13
2023-09-17T19:28:14.431Z,6.38
2023-09-17T19:30:43.155Z,8.60
2023-09-17T19:33:12.384Z,6.93
2023-09-17T19:35:41.142Z,8.10
2023-09-17T19:38:10.041Z,3.97
2023-09-17T19:40:38.925Z,3.97
2023-09-17T19:43:08.951Z,4.05
2023-09-17T19:45:37.632Z,7.60
2023-09-17T19:48:06.941Z,8.35
2023-09-17T19:50:35.603Z,9.50
2023-09-17T19:53:04.714Z,8.70
2023-09-17T19:55:33.620Z,5.75
2023-09-17T19:58:03.618Z,6.18
2023-09-17T20:00:33.740Z,5.18
2023-09-17T20:03:05.296Z,5.38
2023-09-17T20:05:34.940Z,5.80
2023-09-17T20:08:08.351Z,5.30
2023-09-17T20:10:38.379Z,7.50
2023-09-17T20:13:07.376Z,6.35
2023-09-17T20:15:37.474Z,5.07
2023-09-17T20:18:06.611Z,5.88
2023-09-17T20:20:35.608Z,5.20
2023-09-17T20:23:04.537Z,3.10
2023-09-17T20:25:33.287Z,5.65
2023-09-17T20:28:03.132Z,3.58
2023-09-17T20:30:32.294Z,4.82
2023-09-17T20:33:02.473Z,5.95
2023-09-17T20:35:31.242Z,4.28
2023-09-17T20:38:00.053Z,4.80
2023-09-17T20:40:29.570Z,4.55
2023-09-17T20:42:58.542Z,5.35
2023-09-17T20:45:29.096Z,4.65
2023-09-17T20:48:08.268Z,4.05
2023-09-17T20:50:37.015Z,4.80
2023-09-17T20:53:05.792Z,6.60
2023-09-17T20:55:34.384Z,7.25
2023-09-17T20:58:02.966Z,5.10
2023-09-17T21:00:36.204Z,5.35
2023-09-17T21:03:14.504Z,7.10
2023-09-17T21:05:47.822Z,5.70
2023-09-17T21:08:17.239Z,10.18
2023-09-17T21:10:46.164Z,8.65
2023-09-17T21:13:15.287Z,8.00
2023-09-17T21:15:44.176Z,7.45
2023-09-17T21:18:14.278Z,4.97
2023-09-17T21:20:43.097Z,9.68
2023-09-17T21:23:11.781Z,8.13
2023-09-17T21:25:40.841Z,7.70
2023-09-17T21:28:09.442Z,8.02
2023-09-17T21:30:38.132Z,4.90
2023-09-17T21:33:06.901Z,6.03
2023-09-17T21:35:36.994Z,7.60
2023-09-17T21:38:05.705Z,5.28
2023-09-17T21:40:34.428Z,7.60
2023-09-17T21:43:03.664Z,6.95
2023-09-17T21:45:33.982Z,4.65
2023-09-17T21:48:03.194Z,8.15
2023-09-17T21:50:32.111Z,7.10
2023-09-17T21:53:02.312Z,6.00
2023-09-17T21:55:31.182Z,5.63
2023-09-17T21:58:00.067Z,6.35
2023-09-17T22:00:30.706Z,6.65
2023-09-17T22:03:00.874Z,6.93
2023-09-17T22:05:29.794Z,9.38
2023-09-17T22:07:59.158Z,5.85
2023-09-17T22:10:29.482Z,6.38
2023-09-17T22:12:58.074Z,7.00
2023-09-17T22:15:26.676Z,6.85
2023-09-17T22:17:55.625Z,8.43
2023-09-17T22:20:25.701Z,6.50
2023-09-17T22:22:55.264Z,6.28
2023-09-17T22:25:24.175Z,4.93
2023-09-17T22:27:54.872Z,7.03
2023-09-17T22:30:25.519Z,7.28
2023-09-17T22:32:54.482Z,6.13
2023-09-17T22:35:23.193Z,8.02
2023-09-17T22:37:52.059Z,7.63
2023-09-17T22:40:20.869Z,7.40
2023-09-17T22:42:49.404Z,5.85
2023-09-17T22:45:19.504Z,8.45
2023-09-17T22:47:48.178Z,11.75
2023-09-17T22:50:17.246Z,10.68
2023-09-17T22:52:45.989Z,6.78
2023-09-17T22:55:14.830Z,6.80
2023-09-17T22:57:43.431Z,5.45
2023-09-17T23:00:12.880Z,5.18
2023-09-17T23:02:42.959Z,7.45
2023-09-17T23:05:15.335Z,8.65
2023-09-17T23:07:44.189Z,6.43
2023-09-17T23:10:12.849Z,9.45
2023-09-17T23:12:41.529Z,5.32
2023-09-17T23:15:10.851Z,9.60
2023-09-17T23:17:39.857Z,7.47
2023-09-17T23:20:14.006Z,6.85
2023-09-17T23:22:42.774Z,9.15
2023-09-17T23:25:11.762Z,9.35
2023-09-17T23:27:41.673Z,7.75
2023-09-17T23:30:13.574Z,7.78
2023-09-17T23:32:42.538Z,7.82
2023-09-17T23:35:13.246Z,6.78
2023-09-17T23:37:41.916Z,8.82
2023-09-17T23:40:11.473Z,7.45
2023-09-17T23:42:40.053Z,9.40
2023-09-17T23:45:09.508Z,8.40
2023-09-17T23:47:38.222Z,8.57
2023-09-17T23:50:07.924Z,9.63
2023-09-17T23:52:37.878Z,9.95
2023-09-17T23:55:07.346Z,5.57
2023-09-17T23:57:36.479Z,6.00
